Time;durP1;ratioP1;P1;durP2;ratioP2;P2;SDS_P1;SDS_P2;PMS_P1;PMS_P2;Temp;Humidity;BMP_temperature;BMP_pressure;BME280_temperature;BME280_humidity;BME280_pressure;Samples;Min_cycle;Max_cycle;Signal;HPM_P1;HPM_P2
2022/04/25 00:00:35;;;;;;;7.15;6.55;;;;;;;;;;5078179;28;20646;-86
2022/04/25 00:03:04;;;;;;;6.88;6.25;;;;;;;;;;5078609;28;20229;-86
2022/04/25 00:05:31;;;;;;;5.30;4.90;;;;;;;;;;5077152;28;20287;-85
2022/04/25 00:07:59;;;;;;;6.15;5.57;;;;;;;;;;5078600;28;20189;-85
2022/04/25 00:10:26;;;;;;;5.97;5.47;;;;;;;;;;5078192;28;20204;-85
2022/04/25 00:12:54;;;;;;;6.45;5.93;;;;;;;;;;5077384;28;20294;-83
2022/04/25 00:15:21;;;;;;;6.10;5.50;;;;;;;;;;5077446;28;20200;-85
2022/04/25 00:17:49;;;;;;;6.82;6.20;;;;;;;;;;5078548;28;20207;-85
2022/04/25 00:20:17;;;;;;;6.97;6.35;;;;;;;;;;5078440;28;20201;-85
2022/04/25 00:22:46;;;;;;;7.72;6.93;;;;;;;;;;5077916;28;20225;-83
2022/04/25 00:25:13;;;;;;;7.00;6.40;;;;;;;;;;5078341;28;20224;-85
2022/04/25 00:27:41;;;;;;;7.00;6.40;;;;;;;;;;5077637;28;20201;-86
2022/04/25 00:30:10;;;;;;;6.95;6.25;;;;;;;;;;5078654;28;20201;-84
2022/04/25 00:32:38;;;;;;;7.50;6.75;;;;;;;;;;5077414;28;20217;-85
2022/04/25 00:35:06;;;;;;;7.65;6.95;;;;;;;;;;5077653;28;20193;-85
2022/04/25 00:37:35;;;;;;;6.75;6.10;;;;;;;;;;5077360;28;20200;-86
2022/04/25 00:40:02;;;;;;;7.43;6.47;;;;;;;;;;5078188;28;20278;-85
2022/04/25 00:42:30;;;;;;;6.35;5.78;;;;;;;;;;5077677;28;20689;-85
2022/04/25 00:45:00;;;;;;;5.95;5.35;;;;;;;;;;5077762;28;20201;-86
2022/04/25 00:47:28;;;;;;;5.32;4.82;;;;;;;;;;5077955;28;20189;-84
2022/04/25 00:49:55;;;;;;;6.18;5.68;;;;;;;;;;5077729;28;20193;-84
2022/04/25 00:52:23;;;;;;;5.80;5.30;;;;;;;;;;5077611;28;20225;-83
2022/04/25 00:54:52;;;;;;;12.13;5.95;;;;;;;;;;5077480;28;20201;-84
2022/04/25 00:57:19;;;;;;;6.53;5.90;;;;;;;;;;5077442;28;20297;-85
2022/04/25 00:59:47;;;;;;;5.90;5.28;;;;;;;;;;5077515;28;20571;-84
2022/04/25 01:02:14;;;;;;;6.28;5.78;;;;;;;;;;5076889;28;20228;-84
2022/04/25 01:04:43;;;;;;;5.95;5.35;;;;;;;;;;5078576;28;20174;-83
2022/04/25 01:07:10;;;;;;;5.38;4.90;;;;;;;;;;5079625;28;20197;-84
2022/04/25 01:09:38;;;;;;;5.88;5.35;;;;;;;;;;5079547;28;20200;-87
2022/04/25 01:12:08;;;;;;;5.32;4.93;;;;;;;;;;5079364;28;20201;-86
2022/04/25 01:14:35;;;;;;;4.60;4.25;;;;;;;;;;5078185;28;20193;-85
2022/04/25 01:17:03;;;;;;;4.72;4.30;;;;;;;;;;5078741;28;20197;-85
2022/04/25 01:19:31;;;;;;;5.10;4.70;;;;;;;;;;5078408;28;20630;-84
2022/04/25 01:22:01;;;;;;;4.18;3.88;;;;;;;;;;5078074;28;20220;-84
2022/04/25 01:27:17;;;;;;;4.50;4.13;;;;;;;;;;5035817;28;20703;-84
2022/04/25 01:29:46;;;;;;;3.75;3.45;;;;;;;;;;5077430;28;20204;-86
2022/04/25 01:32:14;;;;;;;3.55;3.25;;;;;;;;;;5078400;28;20598;-85
2022/04/25 01:34:42;;;;;;;4.05;3.75;;;;;;;;;;5077867;28;20330;-84
2022/04/25 01:37:11;;;;;;;4.15;3.08;;;;;;;;;;5077951;28;20212;-86
2022/04/25 01:39:42;;;;;;;2.72;2.53;;;;;;;;;;5076747;28;20233;-87
2022/04/25 01:42:10;;;;;;;2.75;2.55;;;;;;;;;;5077783;28;20231;-85
2022/04/25 01:44:37;;;;;;;2.38;2.22;;;;;;;;;;5077450;28;20201;-84
2022/04/25 01:47:06;;;;;;;2.80;2.38;;;;;;;;;;5077288;28;20246;-85
2022/04/25 01:49:34;;;;;;;2.95;2.75;;;;;;;;;;5078294;28;20272;-83
2022/04/25 01:52:03;;;;;;;3.08;2.78;;;;;;;;;;5078335;28;20201;-84
2022/04/25 01:54:32;;;;;;;2.70;2.50;;;;;;;;;;5081178;28;20197;-83
2022/04/25 01:57:01;;;;;;;3.10;2.90;;;;;;;;;;5082023;28;20300;-85
2022/04/25 01:59:30;;;;;;;2.75;2.55;;;;;;;;;;5081192;28;20193;-84
2022/04/25 02:02:00;;;;;;;3.42;3.13;;;;;;;;;;5082292;28;20681;-85
2022/04/25 02:04:27;;;;;;;2.88;2.55;;;;;;;;;;5080927;28;20677;-84
2022/04/25 02:06:55;;;;;;;2.45;2.25;;;;;;;;;;5079786;28;20486;-85
2022/04/25 02:09:22;;;;;;;2.78;2.58;;;;;;;;;;5080424;28;20204;-84
2022/04/25 02:11:49;;;;;;;3.15;2.92;;;;;;;;;;5079938;28;20300;-86
2022/04/25 02:14:18;;;;;;;2.63;2.42;;;;;;;;;;5080612;28;20688;-83
2022/04/25 02:16:46;;;;;;;2.60;2.40;;;;;;;;;;5079846;28;20552;-85
2022/04/25 02:19:14;;;;;;;2.60;2.35;;;;;;;;;;5081383;28;20559;-83
2022/04/25 02:21:41;;;;;;;3.67;2.55;;;;;;;;;;5080399;28;20816;-83
2022/04/25 02:24:09;;;;;;;2.50;2.28;;;;;;;;;;5080895;28;20574;-83
2022/04/25 02:26:36;;;;;;;2.50;2.30;;;;;;;;;;5080624;28;20295;-84
2022/04/25 02:29:03;;;;;;;2.83;2.63;;;;;;;;;;5079716;28;20193;-85
2022/04/25 02:31:32;;;;;;;2.28;2.10;;;;;;;;;;5079369;28;20197;-86
2022/04/25 02:33:59;;;;;;;3.17;2.97;;;;;;;;;;5079925;28;20688;-85
2022/04/25 02:36:27;;;;;;;3.00;2.80;;;;;;;;;;5080321;28;20208;-85
2022/04/25 02:38:54;;;;;;;2.90;2.70;;;;;;;;;;5080352;28;20212;-83
2022/04/25 02:41:21;;;;;;;2.38;2.10;;;;;;;;;;5079110;28;20197;-83
2022/04/25 02:43:49;;;;;;;2.90;2.70;;;;;;;;;;5078615;28;20228;-85
2022/04/25 02:46:19;;;;;;;3.30;2.38;;;;;;;;;;5079395;28;20201;-84
2022/04/25 02:48:48;;;;;;;2.72;2.53;;;;;;;;;;5079397;28;20529;-86
2022/04/25 02:51:16;;;;;;;3.33;3.03;;;;;;;;;;5079025;28;20197;-83
2022/04/25 02:53:45;;;;;;;3.38;3.08;;;;;;;;;;5079311;28;20220;-84
2022/04/25 02:56:12;;;;;;;3.05;2.85;;;;;;;;;;5080269;28;20201;-86
2022/04/25 02:58:40;;;;;;;4.72;4.32;;;;;;;;;;5080573;28;20196;-83
2022/04/25 03:01:09;;;;;;;3.70;3.40;;;;;;;;;;5079897;28;20204;-85
2022/04/25 03:03:38;;;;;;;3.78;3.13;;;;;;;;;;5060612;28;93134;-83
2022/04/25 03:06:08;;;;;;;3.97;3.63;;;;;;;;;;5078765;28;20254;-83
2022/04/25 03:08:36;;;;;;;3.40;3.10;;;;;;;;;;5080361;28;20567;-83
2022/04/25 03:11:05;;;;;;;4.25;3.85;;;;;;;;;;5081342;28;20200;-83
2022/04/25 03:13:34;;;;;;;4.28;3.88;;;;;;;;;;5080656;28;20220;-84
2022/04/25 03:16:02;;;;;;;3.85;3.55;;;;;;;;;;5081721;28;20201;-84
2022/04/25 03:18:30;;;;;;;3.88;3.58;;;;;;;;;;5081460;28;20212;-84
2022/04/25 03:20:58;;;;;;;4.63;3.90;;;;;;;;;;5081579;28;20197;-83
2022/04/25 03:23:27;;;;;;;5.30;4.80;;;;;;;;;;5081050;28;20682;-84
2022/04/25 03:25:55;;;;;;;4.22;3.83;;;;;;;;;;5080381;28;20197;-85
2022/04/25 03:28:22;;;;;;;4.95;4.50;;;;;;;;;;5080249;28;20211;-84
2022/04/25 03:30:50;;;;;;;4.15;3.85;;;;;;;;;;5080576;28;20197;-85
2022/04/25 03:33:19;;;;;;;4.70;4.30;;;;;;;;;;5080288;28;20221;-86
2022/04/25 03:35:46;;;;;;;4.90;4.40;;;;;;;;;;5080043;28;20258;-85
2022/04/25 03:38:17;;;;;;;4.30;4.00;;;;;;;;;;5080112;28;20243;-86
2022/04/25 03:40:46;;;;;;;5.68;5.18;;;;;;;;;;5079572;28;20200;-85
2022/04/25 03:43:15;;;;;;;5.55;4.97;;;;;;;;;;5079216;28;20227;-84
2022/04/25 03:45:43;;;;;;;5.68;5.07;;;;;;;;;;5080043;28;20235;-84
2022/04/25 03:48:10;;;;;;;5.40;4.85;;;;;;;;;;5079613;28;20205;-85
2022/04/25 03:50:38;;;;;;;5.45;4.95;;;;;;;;;;5078529;28;20193;-84
2022/04/25 03:53:07;;;;;;;5.57;5.05;;;;;;;;;;5079037;28;20299;-86
2022/04/25 03:58:22;;;;;;;5.40;4.90;;;;;;;;;;5079298;28;20235;-85
2022/04/25 04:00:50;;;;;;;5.15;4.63;;;;;;;;;;5079797;28;20232;-85
2022/04/25 04:03:18;;;;;;;5.32;4.82;;;;;;;;;;5079541;28;20835;-86
2022/04/25 04:05:46;;;;;;;8.05;4.90;;;;;;;;;;5079062;28;20209;-86
2022/04/25 04:08:13;;;;;;;5.43;4.90;;;;;;;;;;5079216;28;20197;-85
2022/04/25 04:10:41;;;;;;;5.20;4.80;;;;;;;;;;5079303;28;20341;-84
2022/04/25 04:13:08;;;;;;;5.85;5.35;;;;;;;;;;5061860;28;20248;-85
2022/04/25 04:15:37;;;;;;;5.78;5.10;;;;;;;;;;5060525;28;20198;-88
2022/04/25 04:18:05;;;;;;;6.60;4.97;;;;;;;;;;5058802;28;20201;-85
2022/04/25 04:20:33;;;;;;;4.82;4.43;;;;;;;;;;5059189;28;20209;-85
2022/04/25 04:23:01;;;;;;;7.28;5.30;;;;;;;;;;5058389;28;20224;-85
2022/04/25 04:25:28;;;;;;;5.70;5.15;;;;;;;;;;5058832;28;20198;-85
2022/04/25 04:27:55;;;;;;;5.20;4.70;;;;;;;;;;5058771;28;20201;-85
2022/04/25 04:30:23;;;;;;;4.60;4.00;;;;;;;;;;5058722;28;20198;-85
2022/04/25 04:32:54;;;;;;;4.40;4.03;;;;;;;;;;5058521;28;20226;-86
2022/04/25 04:38:03;;;;;;;4.38;3.97;;;;;;;;;;5057934;28;20262;-85
2022/04/25 04:40:30;;;;;;;2.83;2.63;;;;;;;;;;5059935;28;20206;-85
2022/04/25 04:42:59;;;;;;;3.53;3.22;;;;;;;;;;5058490;28;20233;-87
2022/04/25 04:45:27;;;;;;;3.47;3.17;;;;;;;;;;5056502;28;20201;-86
2022/04/25 04:47:56;;;;;;;5.03;4.53;;;;;;;;;;5057724;28;20208;-86
2022/04/25 04:50:24;;;;;;;4.13;3.72;;;;;;;;;;5057822;28;20201;-86
2022/04/25 04:52:53;;;;;;;3.70;3.40;;;;;;;;;;5057509;28;20221;-85
2022/04/25 04:55:21;;;;;;;3.33;3.10;;;;;;;;;;5057362;28;20205;-85
2022/04/25 04:57:48;;;;;;;4.38;3.97;;;;;;;;;;5057176;28;20209;-86
2022/04/25 05:00:17;;;;;;;5.50;5.00;;;;;;;;;;5057144;28;20646;-87
2022/04/25 05:02:45;;;;;;;5.35;4.88;;;;;;;;;;5057564;28;20236;-84
2022/04/25 05:05:15;;;;;;;5.03;4.53;;;;;;;;;;5057586;28;20686;-83
2022/04/25 05:07:43;;;;;;;5.38;4.78;;;;;;;;;;5061709;28;20200;-85
2022/04/25 05:10:12;;;;;;;4.70;4.30;;;;;;;;;;5077768;28;20204;-85
2022/04/25 05:12:47;;;;;;;5.60;5.10;;;;;;;;;;5076684;28;20771;-84
2022/04/25 05:15:14;;;;;;;5.57;5.00;;;;;;;;;;5076536;28;20200;-86
2022/04/25 05:17:43;;;;;;;7.53;5.60;;;;;;;;;;5076921;28;20723;-84
2022/04/25 05:20:14;;;;;;;9.77;5.82;;;;;;;;;;5078145;28;20292;-85
2022/04/25 05:22:44;;;;;;;6.93;5.85;;;;;;;;;;5077625;28;20694;-84
2022/04/25 05:25:14;;;;;;;8.65;6.25;;;;;;;;;;5077077;28;20224;-85
2022/04/25 05:27:42;;;;;;;4.80;4.40;;;;;;;;;;5076052;28;20291;-85
2022/04/25 05:30:11;;;;;;;3.58;3.28;;;;;;;;;;5074133;28;20197;-83
2022/04/25 05:32:47;;;;;;;5.47;3.60;;;;;;;;;;5075090;28;20255;-84
2022/04/25 05:35:17;;;;;;;4.50;4.07;;;;;;;;;;5081817;28;20641;-81
2022/04/25 05:37:45;;;;;;;4.88;4.40;;;;;;;;;;5095080;22;20223;-82
2022/04/25 05:40:13;;;;;;;5.78;5.28;;;;;;;;;;5116462;28;20203;-78
2022/04/25 05:42:43;;;;;;;5.43;4.93;;;;;;;;;;5114752;28;20211;-78
2022/04/25 05:45:12;;;;;;;4.40;4.00;;;;;;;;;;5114658;28;20231;-78
2022/04/25 05:47:39;;;;;;;5.13;4.25;;;;;;;;;;5107049;28;20294;-77
2022/04/25 05:52:57;;;;;;;4.65;4.25;;;;;;;;;;5109938;28;20720;-77
2022/04/25 05:55:24;;;;;;;3.78;3.47;;;;;;;;;;5113860;28;20230;-78
2022/04/25 05:57:52;;;;;;;3.63;3.33;;;;;;;;;;5112919;28;20219;-78
2022/04/25 06:00:20;;;;;;;3.88;3.58;;;;;;;;;;5113560;28;20675;-78
2022/04/25 06:02:48;;;;;;;5.05;4.32;;;;;;;;;;5113254;28;20203;-78
2022/04/25 06:05:16;;;;;;;6.05;4.60;;;;;;;;;;5114165;28;20255;-78
2022/04/25 06:07:45;;;;;;;6.55;5.85;;;;;;;;;;5113761;28;20284;-78
2022/04/25 06:10:16;;;;;;;5.97;5.07;;;;;;;;;;5114812;28;20203;-77
2022/04/25 06:12:45;;;;;;;5.05;4.65;;;;;;;;;;5114773;28;20280;-79
2022/04/25 06:15:12;;;;;;;6.07;5.57;;;;;;;;;;5113439;28;20219;-79
2022/04/25 06:17:40;;;;;;;5.75;5.20;;;;;;;;;;5114837;28;20208;-78
2022/04/25 06:20:09;;;;;;;4.18;3.80;;;;;;;;;;5116015;28;20335;-78
2022/04/25 06:22:37;;;;;;;4.65;4.32;;;;;;;;;;5114533;28;20261;-77
2022/04/25 06:25:06;;;;;;;4.95;4.53;;;;;;;;;;5109793;28;20230;-77
2022/04/25 06:27:35;;;;;;;6.00;5.50;;;;;;;;;;5114568;28;20631;-78
2022/04/25 06:30:04;;;;;;;6.05;5.45;;;;;;;;;;5113130;28;20207;-77
2022/04/25 06:32:31;;;;;;;4.93;4.53;;;;;;;;;;5114253;28;20751;-78
2022/04/25 06:35:00;;;;;;;3.92;3.60;;;;;;;;;;5114001;28;20273;-78
2022/04/25 06:37:27;;;;;;;4.50;4.10;;;;;;;;;;5113930;28;20203;-78
2022/04/25 06:39:54;;;;;;;4.85;4.45;;;;;;;;;;5115375;28;20207;-77
2022/04/25 06:42:25;;;;;;;6.43;5.78;;;;;;;;;;5115639;28;20203;-78
2022/04/25 06:44:53;;;;;;;7.25;6.57;;;;;;;;;;5116616;28;20231;-78
2022/04/25 06:47:20;;;;;;;4.93;4.35;;;;;;;;;;5118480;28;20252;-77
2022/04/25 06:49:48;;;;;;;5.75;5.10;;;;;;;;;;5117379;28;20203;-77
2022/04/25 06:52:15;;;;;;;5.28;4.85;;;;;;;;;;5116802;28;20207;-77
2022/04/25 06:54:42;;;;;;;4.95;4.50;;;;;;;;;;5116102;28;20219;-79
2022/04/25 06:57:10;;;;;;;6.07;5.57;;;;;;;;;;5116561;28;20214;-77
2022/04/25 06:59:38;;;;;;;3.65;3.35;;;;;;;;;;5115994;28;20685;-81
2022/04/25 07:02:07;;;;;;;5.00;4.60;;;;;;;;;;5116522;28;20388;-78
2022/04/25 07:04:34;;;;;;;3.88;3.40;;;;;;;;;;5118212;27;20280;-79
2022/04/25 07:07:01;;;;;;;4.03;3.63;;;;;;;;;;5116256;28;20632;-77
2022/04/25 07:09:29;;;;;;;3.75;3.40;;;;;;;;;;5116250;28;20585;-77
2022/04/25 07:11:56;;;;;;;5.30;3.75;;;;;;;;;;5115497;28;20725;-78
2022/04/25 07:14:24;;;;;;;4.55;4.15;;;;;;;;;;5116233;27;20276;-78
2022/04/25 07:16:52;;;;;;;5.20;4.75;;;;;;;;;;5116440;28;20200;-77
2022/04/25 07:19:21;;;;;;;6.07;5.50;;;;;;;;;;5115670;28;20699;-78
2022/04/25 07:30:04;;;;;;;3.92;3.63;;;;;;;;;;5114231;28;20210;-79
2022/04/25 07:32:32;;;;;;;3.65;3.35;;;;;;;;;;5114356;28;20208;-77
2022/04/25 07:35:04;;;;;;;2.80;2.55;;;;;;;;;;5115018;28;20311;-77
2022/04/25 07:37:33;;;;;;;3.33;3.03;;;;;;;;;;5115021;28;20207;-78
2022/04/25 07:40:02;;;;;;;5.38;4.88;;;;;;;;;;5114930;28;20204;-78
2022/04/25 07:42:31;;;;;;;6.57;5.25;;;;;;;;;;5114079;28;20797;-78
2022/04/25 07:44:59;;;;;;;5.68;5.18;;;;;;;;;;5115244;28;20231;-78
2022/04/25 07:47:26;;;;;;;6.32;5.80;;;;;;;;;;5114483;28;20643;-78
2022/04/25 07:49:53;;;;;;;4.60;4.20;;;;;;;;;;5114232;27;20208;-78
2022/04/25 07:52:22;;;;;;;5.70;5.20;;;;;;;;;;5114066;28;20208;-78
2022/04/25 07:54:51;;;;;;;6.13;5.50;;;;;;;;;;5115096;28;20220;-78
2022/04/25 07:57:19;;;;;;;5.88;5.32;;;;;;;;;;5116108;28;20616;-78
2022/04/25 07:59:47;;;;;;;5.25;4.85;;;;;;;;;;5114768;28;20250;-78
2022/04/25 08:02:17;;;;;;;4.15;3.85;;;;;;;;;;5113900;28;20477;-79
2022/04/25 08:04:45;;;;;;;5.07;4.50;;;;;;;;;;5114948;28;20342;-79
2022/04/25 08:07:13;;;;;;;5.43;4.93;;;;;;;;;;5114839;28;20322;-79
2022/04/25 08:09:43;;;;;;;5.60;5.00;;;;;;;;;;5114668;28;20547;-79
2022/04/25 08:18:04;;;;;;;4.38;3.90;;;;;;;;;;5051207;28;20247;-78
2022/04/25 08:20:35;;;;;;;5.25;4.85;;;;;;;;;;5051180;28;20220;-78
2022/04/25 08:23:03;;;;;;;4.68;4.28;;;;;;;;;;5080910;28;20223;-79
2022/04/25 08:25:33;;;;;;;5.57;4.80;;;;;;;;;;5111951;28;20230;-79
2022/04/25 08:28:00;;;;;;;5.00;4.50;;;;;;;;;;5115156;28;20286;-78
2022/04/25 08:30:29;;;;;;;5.22;4.18;;;;;;;;;;5113502;28;20203;-79
2022/04/25 08:32:56;;;;;;;4.43;4.10;;;;;;;;;;5113618;28;20207;-79
2022/04/25 08:35:24;;;;;;;4.03;3.72;;;;;;;;;;5114397;28;20276;-78
2022/04/25 08:37:52;;;;;;;3.97;3.67;;;;;;;;;;5114244;28;20215;-78
2022/04/25 08:40:19;;;;;;;3.72;3.42;;;;;;;;;;5114738;28;20229;-79
2022/04/25 08:42:48;;;;;;;4.50;4.10;;;;;;;;;;5113463;28;20261;-79
2022/04/25 08:45:16;;;;;;;5.03;4.60;;;;;;;;;;5114152;28;20268;-78
2022/04/25 08:47:48;;;;;;;4.78;4.00;;;;;;;;;;5113736;28;20707;-78
2022/04/25 08:50:18;;;;;;;4.60;4.25;;;;;;;;;;5114145;28;20211;-78
2022/04/25 08:52:46;;;;;;;3.83;3.53;;;;;;;;;;5113377;28;20211;-79
2022/04/25 08:55:14;;;;;;;7.30;5.88;;;;;;;;;;5114017;28;20703;-79
2022/04/25 08:57:43;;;;;;;4.93;4.53;;;;;;;;;;5113809;28;20681;-79
2022/04/25 09:00:13;;;;;;;5.07;4.55;;;;;;;;;;5114357;28;20212;-78
2022/04/25 09:02:41;;;;;;;4.57;3.88;;;;;;;;;;5109460;28;20698;-80
2022/04/25 09:05:08;;;;;;;5.20;4.70;;;;;;;;;;5113780;28;20691;-79
2022/04/25 09:07:37;;;;;;;4.80;4.40;;;;;;;;;;5113456;28;20223;-78
2022/04/25 09:10:08;;;;;;;6.65;4.60;;;;;;;;;;5114427;28;20200;-79
2022/04/25 09:12:35;;;;;;;5.88;5.10;;;;;;;;;;5113135;28;20732;-78
2022/04/25 09:15:04;;;;;;;5.32;4.82;;;;;;;;;;5113542;28;20314;-79
2022/04/25 09:17:32;;;;;;;5.32;4.78;;;;;;;;;;5113762;28;20201;-78
2022/04/25 09:20:00;;;;;;;6.20;5.50;;;;;;;;;;5112695;28;20234;-79
2022/04/25 09:22:32;;;;;;;5.22;4.72;;;;;;;;;;5111953;28;20207;-77
2022/04/25 09:25:08;;;;;;;4.88;4.47;;;;;;;;;;5111331;28;20224;-79
2022/04/25 09:27:36;;;;;;;4.85;4.45;;;;;;;;;;5114758;28;20268;-81
2022/04/25 09:30:18;;;;;;;4.45;4.05;;;;;;;;;;5113310;28;20212;-79
2022/04/25 09:32:47;;;;;;;4.72;4.03;;;;;;;;;;5107783;28;20206;-80
2022/04/25 09:35:33;;;;;;;4.63;4.20;;;;;;;;;;5114175;28;20228;-79
2022/04/25 09:38:03;;;;;;;5.25;4.85;;;;;;;;;;5114416;28;20215;-83
2022/04/25 09:40:33;;;;;;;4.97;4.47;;;;;;;;;;5114659;28;20207;-80
2022/04/25 09:43:07;;;;;;;5.18;4.68;;;;;;;;;;5114350;28;20199;-80
2022/04/25 09:45:37;;;;;;;4.65;4.28;;;;;;;;;;5114614;28;20219;-80
2022/04/25 09:48:10;;;;;;;4.63;4.20;;;;;;;;;;5113815;28;20230;-80
2022/04/25 09:50:38;;;;;;;5.57;5.15;;;;;;;;;;5113874;28;20690;-81
2022/04/25 09:53:08;;;;;;;4.10;3.70;;;;;;;;;;5113262;28;20226;-81
2022/04/25 09:55:38;;;;;;;5.40;4.90;;;;;;;;;;5114370;28;20219;-80
2022/04/25 09:58:23;;;;;;;4.90;4.40;;;;;;;;;;5107507;28;20195;-81
2022/04/25 10:00:53;;;;;;;3.85;3.55;;;;;;;;;;5111591;28;20203;-81
2022/04/25 10:03:35;;;;;;;4.00;3.70;;;;;;;;;;5113897;28;20207;-81
2022/04/25 10:06:04;;;;;;;3.85;3.55;;;;;;;;;;5114582;28;20290;-81
2022/04/25 10:08:35;;;;;;;3.90;3.40;;;;;;;;;;5114566;28;20230;-81
2022/04/25 10:11:05;;;;;;;3.60;3.30;;;;;;;;;;5113772;28;20743;-81
2022/04/25 10:13:33;;;;;;;3.30;3.00;;;;;;;;;;5112150;28;20204;-81
2022/04/25 10:16:01;;;;;;;2.85;2.65;;;;;;;;;;5118007;28;20663;-81
2022/04/25 10:18:31;;;;;;;2.90;2.65;;;;;;;;;;5118040;28;20200;-81
2022/04/25 10:20:59;;;;;;;2.08;1.98;;;;;;;;;;5118372;28;20203;-81
2022/04/25 10:23:27;;;;;;;2.60;2.40;;;;;;;;;;5117875;28;20199;-81
2022/04/25 10:25:56;;;;;;;2.90;2.70;;;;;;;;;;5116781;28;20206;-81
2022/04/25 10:28:30;;;;;;;1.90;1.80;;;;;;;;;;5118301;28;20223;-79
2022/04/25 10:31:03;;;;;;;2.60;2.40;;;;;;;;;;5104658;28;20254;-80
2022/04/25 10:33:49;;;;;;;2.30;2.10;;;;;;;;;;5111517;28;20223;-81
2022/04/25 10:36:48;;;;;;;2.65;2.45;;;;;;;;;;5117308;28;20203;-81
2022/04/25 10:39:18;;;;;;;2.45;2.20;;;;;;;;;;5117760;28;20211;-81
2022/04/25 10:44:55;;;;;;;2.15;1.95;;;;;;;;;;5117849;28;20275;-82
2022/04/25 10:47:24;;;;;;;2.00;1.90;;;;;;;;;;5110904;28;20249;-81
2022/04/25 10:50:04;;;;;;;1.77;1.67;;;;;;;;;;5111150;28;20480;-82
2022/04/25 10:52:55;;;;;;;1.88;1.77;;;;;;;;;;5117021;28;20200;-81
2022/04/25 10:55:34;;;;;;;2.05;1.95;;;;;;;;;;5117614;28;20227;-82
2022/04/25 10:58:19;;;;;;;2.50;2.15;;;;;;;;;;5109802;28;20200;-82
2022/04/25 11:00:57;;;;;;;2.25;2.15;;;;;;;;;;5117709;28;20204;-81
2022/04/25 11:03:31;;;;;;;2.05;1.90;;;;;;;;;;5117080;28;20203;-82
2022/04/25 11:06:06;;;;;;;1.90;1.80;;;;;;;;;;5117510;28;20812;-82
2022/04/25 11:08:40;;;;;;;2.67;2.47;;;;;;;;;;5117914;28;20321;-82
2022/04/25 11:11:20;;;;;;;1.60;1.50;;;;;;;;;;5117411;28;20693;-81
2022/04/25 11:14:24;;;;;;;2.50;2.30;;;;;;;;;;5111748;28;20219;-82
2022/04/25 11:17:11;;;;;;;2.00;1.90;;;;;;;;;;5119284;28;20225;-81
2022/04/25 11:19:49;;;;;;;2.08;1.98;;;;;;;;;;5114306;28;20264;-83
2022/04/25 11:22:52;;;;;;;1.98;1.88;;;;;;;;;;5117714;28;20210;-83
2022/04/25 11:25:42;;;;;;;2.15;1.98;;;;;;;;;;5118631;28;20318;-83
2022/04/25 11:28:12;;;;;;;2.88;2.67;;;;;;;;;;5117429;28;20224;-83
2022/04/25 11:30:41;;;;;;;1.70;1.60;;;;;;;;;;5117251;28;20211;-82
2022/04/25 11:33:10;;;;;;;2.70;2.50;;;;;;;;;;5116996;28;20199;-83
2022/04/25 11:35:39;;;;;;;1.83;1.73;;;;;;;;;;5118407;28;20256;-81
2022/04/25 11:38:08;;;;;;;1.88;1.75;;;;;;;;;;5116998;28;20211;-83
2022/04/25 11:40:35;;;;;;;2.15;1.30;;;;;;;;;;5117082;28;20200;-82
2022/04/25 11:43:04;;;;;;;1.58;1.48;;;;;;;;;;5115839;28;20210;-82
2022/04/25 11:45:31;;;;;;;1.38;1.33;;;;;;;;;;5116244;28;20361;-82
2022/04/25 11:48:00;;;;;;;1.60;1.55;;;;;;;;;;5116284;28;20223;-82
2022/04/25 11:50:28;;;;;;;1.55;1.45;;;;;;;;;;5116209;28;20461;-83
2022/04/25 11:52:56;;;;;;;1.58;1.48;;;;;;;;;;5116317;28;20250;-82
2022/04/25 11:55:35;;;;;;;1.20;1.20;;;;;;;;;;5117138;28;20583;-83
2022/04/25 11:58:03;;;;;;;1.45;1.35;;;;;;;;;;5116005;28;20204;-82
2022/04/25 12:00:31;;;;;;;1.50;1.40;;;;;;;;;;5116541;28;20207;-83
2022/04/25 12:02:58;;;;;;;1.48;1.38;;;;;;;;;;5115943;27;20662;-83
2022/04/25 12:05:31;;;;;;;1.40;1.30;;;;;;;;;;5117439;28;20223;-84
2022/04/25 12:16:15;;;;;;;1.13;1.13;;;;;;;;;;5117670;28;20244;-84
2022/04/25 12:18:52;;;;;;;1.50;1.40;;;;;;;;;;5116511;28;20226;-83
2022/04/25 12:21:20;;;;;;;1.55;1.45;;;;;;;;;;5117250;28;20203;-82
2022/04/25 12:23:50;;;;;;;1.80;1.70;;;;;;;;;;5115841;28;20822;-83
2022/04/25 12:26:20;;;;;;;2.22;2.00;;;;;;;;;;5116128;28;20199;-82
2022/04/25 12:28:53;;;;;;;1.67;1.58;;;;;;;;;;5116454;28;20235;-83
2022/04/25 12:31:20;;;;;;;2.78;1.60;;;;;;;;;;5115549;28;20506;-83
2022/04/25 12:33:50;;;;;;;1.35;1.27;;;;;;;;;;5115506;28;20239;-83
2022/04/25 12:36:20;;;;;;;1.73;1.63;;;;;;;;;;5116731;28;20222;-83
2022/04/25 12:38:54;;;;;;;2.50;2.30;;;;;;;;;;5116663;28;20237;-83
2022/04/25 12:41:25;;;;;;;2.05;1.85;;;;;;;;;;5114367;28;20210;-83
2022/04/25 12:43:54;;;;;;;2.38;2.20;;;;;;;;;;5114601;28;20254;-82
2022/04/25 12:46:42;;;;;;;2.28;2.17;;;;;;;;;;5115787;28;20209;-83
2022/04/25 12:49:12;;;;;;;1.90;1.80;;;;;;;;;;5111774;28;20616;-83
2022/04/25 12:51:46;;;;;;;1.60;1.50;;;;;;;;;;5114698;28;20242;-82
2022/04/25 12:54:24;;;;;;;1.75;1.65;;;;;;;;;;5116050;28;20226;-83
2022/04/25 12:57:00;;;;;;;2.10;1.90;;;;;;;;;;5115688;28;20203;-83
2022/04/25 12:59:30;;;;;;;2.30;2.10;;;;;;;;;;5116750;28;20199;-83
2022/04/25 13:02:06;;;;;;;2.10;1.95;;;;;;;;;;5116515;28;20203;-82
2022/04/25 13:04:34;;;;;;;1.65;1.55;;;;;;;;;;5110754;28;20224;-83
2022/04/25 13:07:01;;;;;;;1.95;1.85;;;;;;;;;;5117034;28;20659;-83
2022/04/25 13:09:28;;;;;;;2.63;2.42;;;;;;;;;;5115546;28;20223;-83
2022/04/25 13:11:57;;;;;;;2.42;2.25;;;;;;;;;;5116362;28;20268;-83
2022/04/25 13:14:24;;;;;;;2.40;2.20;;;;;;;;;;5116411;28;20231;-84
2022/04/25 13:16:51;;;;;;;2.13;2.03;;;;;;;;;;5116375;28;20203;-82
2022/04/25 13:19:18;;;;;;;1.88;1.70;;;;;;;;;;5116406;28;20195;-82
2022/04/25 13:21:47;;;;;;;1.80;1.70;;;;;;;;;;5116063;28;20195;-83
2022/04/25 13:24:14;;;;;;;2.95;2.47;;;;;;;;;;5115943;28;20259;-82
2022/04/25 13:26:42;;;;;;;3.33;3.03;;;;;;;;;;5115487;28;20203;-82
2022/04/25 13:29:10;;;;;;;2.40;2.20;;;;;;;;;;5115795;28;20227;-83
2022/04/25 13:31:38;;;;;;;2.08;1.98;;;;;;;;;;5116023;28;20260;-83
2022/04/25 13:34:05;;;;;;;1.40;1.30;;;;;;;;;;5117001;28;20227;-84
2022/04/25 13:36:32;;;;;;;1.92;1.83;;;;;;;;;;5117042;28;20287;-83
2022/04/25 13:39:00;;;;;;;2.10;2.00;;;;;;;;;;5116032;28;20605;-82
2022/04/25 13:41:28;;;;;;;2.05;1.95;;;;;;;;;;5115907;28;20589;-83
2022/04/25 13:43:55;;;;;;;1.83;1.73;;;;;;;;;;5109388;28;20242;-82
2022/04/25 13:46:24;;;;;;;2.15;2.00;;;;;;;;;;5115978;28;20286;-83
2022/04/25 13:48:52;;;;;;;2.60;2.28;;;;;;;;;;5110596;28;20298;-82
2022/04/25 13:51:19;;;;;;;2.47;2.30;;;;;;;;;;5121358;28;20205;-83
2022/04/25 13:53:47;;;;;;;2.45;2.25;;;;;;;;;;5120324;28;20258;-84
2022/04/25 13:56:14;;;;;;;2.40;2.30;;;;;;;;;;5120296;28;20820;-84
2022/04/25 13:58:41;;;;;;;2.58;2.45;;;;;;;;;;5113331;28;20199;-84
2022/04/25 14:01:10;;;;;;;2.75;2.55;;;;;;;;;;5117906;28;20200;-83
2022/04/25 14:03:38;;;;;;;2.90;2.70;;;;;;;;;;5112511;28;20294;-83
2022/04/25 14:06:06;;;;;;;2.22;2.13;;;;;;;;;;5115537;28;20625;-84
2022/04/25 14:08:33;;;;;;;1.80;1.70;;;;;;;;;;5120580;28;20214;-83
2022/04/25 14:11:01;;;;;;;2.78;2.58;;;;;;;;;;5113773;28;20207;-82
2022/04/25 14:13:30;;;;;;;2.70;2.50;;;;;;;;;;5113179;28;20574;-82
2022/04/25 14:15:57;;;;;;;4.85;2.80;;;;;;;;;;5121510;28;20249;-82
2022/04/25 14:18:25;;;;;;;2.67;2.33;;;;;;;;;;5118180;28;20208;-83
2022/04/25 14:20:54;;;;;;;2.20;2.00;;;;;;;;;;5120559;28;20227;-83
2022/04/25 14:23:21;;;;;;;2.95;2.40;;;;;;;;;;5112758;28;20273;-83
2022/04/25 14:25:49;;;;;;;2.38;2.17;;;;;;;;;;5112654;28;20671;-82
2022/04/25 14:28:16;;;;;;;2.28;1.83;;;;;;;;;;5119622;28;20214;-82
2022/04/25 14:30:44;;;;;;;2.75;2.55;;;;;;;;;;5118681;28;20223;-83
2022/04/25 14:33:11;;;;;;;2.70;2.50;;;;;;;;;;5112019;28;20252;-82
2022/04/25 14:35:38;;;;;;;2.88;2.65;;;;;;;;;;5120365;28;20215;-82
2022/04/25 14:38:07;;;;;;;1.83;1.73;;;;;;;;;;5113090;28;20811;-82
2022/04/25 14:40:34;;;;;;;3.08;2.38;;;;;;;;;;5112724;28;20627;-82
2022/04/25 14:43:01;;;;;;;3.08;2.83;;;;;;;;;;5114485;28;20229;-83
2022/04/25 14:45:29;;;;;;;3.35;2.55;;;;;;;;;;5112136;28;20768;-82
2022/04/25 14:47:56;;;;;;;2.00;1.90;;;;;;;;;;5112128;28;20207;-83
2022/04/25 14:55:54;;;;;;;2.78;2.58;;;;;;;;;;5119792;28;20210;-83
2022/04/25 14:58:22;;;;;;;1.95;1.85;;;;;;;;;;5119207;28;20203;-84
2022/04/25 15:00:49;;;;;;;2.70;2.50;;;;;;;;;;5118265;28;20200;-83
2022/04/25 15:03:17;;;;;;;2.97;2.50;;;;;;;;;;5117688;27;20203;-82
2022/04/25 15:05:45;;;;;;;2.20;2.10;;;;;;;;;;5117668;28;20290;-82
2022/04/25 15:08:15;;;;;;;2.42;2.33;;;;;;;;;;5116927;28;20207;-82
2022/04/25 15:10:46;;;;;;;2.15;2.03;;;;;;;;;;5117270;28;20224;-82
2022/04/25 15:13:13;;;;;;;1.52;1.42;;;;;;;;;;5116157;28;20207;-82
2022/04/25 15:15:41;;;;;;;2.13;2.03;;;;;;;;;;5117073;28;20231;-80
2022/04/25 15:18:10;;;;;;;2.38;2.17;;;;;;;;;;5116640;28;20206;-82
2022/04/25 15:20:39;;;;;;;2.95;2.75;;;;;;;;;;5117288;28;20207;-82
2022/04/25 15:23:07;;;;;;;3.95;3.65;;;;;;;;;;5115968;28;20208;-81
2022/04/25 15:25:36;;;;;;;3.00;2.80;;;;;;;;;;5116982;28;20239;-80
2022/04/25 15:28:04;;;;;;;3.55;3.25;;;;;;;;;;5113542;28;20203;-82
2022/04/25 15:30:33;;;;;;;2.78;2.58;;;;;;;;;;5117268;28;20227;-82
2022/04/25 15:33:01;;;;;;;2.80;2.60;;;;;;;;;;5115853;28;20239;-81
2022/04/25 15:35:29;;;;;;;2.65;2.45;;;;;;;;;;5116908;28;20598;-82
2022/04/25 15:37:57;;;;;;;2.78;2.58;;;;;;;;;;5117727;28;20215;-80